sensor_id;sensor_type;location;lat;lon;timestamp;temperature;humidity
22986;DHT22;11659;51.092;7.080;2022-07-24T00:00:04;16.80;99.90
22986;DHT22;11659;51.092;7.080;2022-07-24T00:02:38;16.80;99.90
22986;DHT22;11659;51.092;7.080;2022-07-24T00:05:05;16.80;99.90
22986;DHT22;11659;51.092;7.080;2022-07-24T00:07:31;16.80;99.90
22986;DHT22;11659;51.092;7.080;2022-07-24T00:09:57;16.80;99.90
22986;DHT22;11659;51.092;7.080;2022-07-24T00:12:24;16.80;99.90
22986;DHT22;11659;51.092;7.080;2022-07-24T00:14:51;16.70;99.90
22986;DHT22;11659;51.092;7.080;2022-07-24T00:17:18;16.70;99.90
22986;DHT22;11659;51.092;7.080;2022-07-24T00:19:43;16.70;99.90
22986;DHT22;11659;51.092;7.080;2022-07-24T00:22:10;16.70;99.90
22986;DHT22;11659;51.092;7.080;2022-07-24T00:24:35;16.70;99.90
22986;DHT22;11659;51.092;7.080;2022-07-24T00:27:02;16.70;99.90
22986;DHT22;11659;51.092;7.080;2022-07-24T00:29:29;16.70;99.90
22986;DHT22;11659;51.092;7.080;2022-07-24T00:31:55;16.70;99.90
22986;DHT22;11659;51.092;7.080;2022-07-24T00:34:21;16.60;99.90
22986;DHT22;11659;51.092;7.080;2022-07-24T00:36:47;16.60;99.90
22986;DHT22;11659;51.092;7.080;2022-07-24T00:39:13;16.60;99.90
22986;DHT22;11659;51.092;7.080;2022-07-24T00:41:39;16.60;99.90
22986;DHT22;11659;51.092;7.080;2022-07-24T00:44:07;16.60;99.90
22986;DHT22;11659;51.092;7.080;2022-07-24T00:46:36;16.60;99.90
22986;DHT22;11659;51.092;7.080;2022-07-24T00:49:04;16.50;99.90
22986;DHT22;11659;51.092;7.080;2022-07-24T00:51:30;16.50;99.90
22986;DHT22;11659;51.092;7.080;2022-07-24T00:53:56;16.50;99.90
22986;DHT22;11659;51.092;7.080;2022-07-24T00:56:22;16.50;99.90
22986;DHT22;11659;51.092;7.080;2022-07-24T00:58:49;16.40;99.90
22986;DHT22;11659;51.092;7.080;2022-07-24T01:01:15;16.50;99.90
22986;DHT22;11659;51.092;7.080;2022-07-24T01:03:42;16.50;99.90
22986;DHT22;11659;51.092;7.080;2022-07-24T01:06:09;16.40;99.90
22986;DHT22;11659;51.092;7.080;2022-07-24T01:08:35;16.40;99.90
22986;DHT22;11659;51.092;7.080;2022-07-24T01:11:03;16.50;99.90
22986;DHT22;11659;51.092;7.080;2022-07-24T01:13:30;16.40;99.90
22986;DHT22;11659;51.092;7.080;2022-07-24T01:15:56;16.40;99.90
22986;DHT22;11659;51.092;7.080;2022-07-24T01:18:22;16.40;99.90
22986;DHT22;11659;51.092;7.080;2022-07-24T01:20:49;16.40;99.90
22986;DHT22;11659;51.092;7.080;2022-07-24T01:23:15;16.40;99.90
22986;DHT22;11659;51.092;7.080;2022-07-24T01:25:42;16.40;99.90
22986;DHT22;11659;51.092;7.080;2022-07-24T01:28:08;16.40;99.90
22986;DHT22;11659;51.092;7.080;2022-07-24T01:30:34;16.40;99.90
22986;DHT22;11659;51.092;7.080;2022-07-24T01:33:00;16.40;99.90
22986;DHT22;11659;51.092;7.080;2022-07-24T01:35:26;16.40;99.90
22986;DHT22;11659;51.092;7.080;2022-07-24T01:37:56;16.40;99.90
22986;DHT22;11659;51.092;7.080;2022-07-24T01:40:22;16.40;99.90
22986;DHT22;11659;51.092;7.080;2022-07-24T01:42:49;16.40;99.90
22986;DHT22;11659;51.092;7.080;2022-07-24T01:45:15;16.40;99.90
22986;DHT22;11659;51.092;7.080;2022-07-24T01:47:42;16.40;99.90
22986;DHT22;11659;51.092;7.080;2022-07-24T01:50:09;16.40;99.90
22986;DHT22;11659;51.092;7.080;2022-07-24T01:52:35;16.40;99.90
22986;DHT22;11659;51.092;7.080;2022-07-24T01:55:04;16.40;99.90
22986;DHT22;11659;51.092;7.080;2022-07-24T01:57:31;16.40;99.90
22986;DHT22;11659;51.092;7.080;2022-07-24T01:59:57;16.40;99.90
22986;DHT22;11659;51.092;7.080;2022-07-24T02:02:23;16.40;99.90
22986;DHT22;11659;51.092;7.080;2022-07-24T02:04:49;16.40;99.90
22986;DHT22;11659;51.092;7.080;2022-07-24T02:07:15;16.30;99.90
22986;DHT22;11659;51.092;7.080;2022-07-24T02:09:41;16.40;99.90
22986;DHT22;11659;51.092;7.080;2022-07-24T02:12:09;16.40;99.90
22986;DHT22;11659;51.092;7.080;2022-07-24T02:14:35;16.40;99.90
22986;DHT22;11659;51.092;7.080;2022-07-24T02:17:01;16.40;99.90
22986;DHT22;11659;51.092;7.080;2022-07-24T02:19:26;16.30;99.90
22986;DHT22;11659;51.092;7.080;2022-07-24T02:21:52;16.30;99.90
22986;DHT22;11659;51.092;7.080;2022-07-24T02:24:18;16.30;99.90
22986;DHT22;11659;51.092;7.080;2022-07-24T02:26:44;16.30;99.90
22986;DHT22;11659;51.092;7.080;2022-07-24T02:29:12;16.30;99.90
22986;DHT22;11659;51.092;7.080;2022-07-24T02:31:38;16.30;99.90
22986;DHT22;11659;51.092;7.080;2022-07-24T02:34:04;16.30;99.90
22986;DHT22;11659;51.092;7.080;2022-07-24T02:36:30;16.30;99.90
22986;DHT22;11659;51.092;7.080;2022-07-24T02:38:56;16.30;99.90
22986;DHT22;11659;51.092;7.080;2022-07-24T02:41:22;16.30;99.90
22986;DHT22;11659;51.092;7.080;2022-07-24T02:43:49;16.30;99.90
22986;DHT22;11659;51.092;7.080;2022-07-24T02:46:17;16.30;99.90
22986;DHT22;11659;51.092;7.080;2022-07-24T02:48:43;16.30;99.90
22986;DHT22;11659;51.092;7.080;2022-07-24T02:51:09;16.20;99.90
22986;DHT22;11659;51.092;7.080;2022-07-24T02:53:36;16.30;99.90
22986;DHT22;11659;51.092;7.080;2022-07-24T02:56:02;16.20;99.90
22986;DHT22;11659;51.092;7.080;2022-07-24T02:58:28;16.20;99.90
22986;DHT22;11659;51.092;7.080;2022-07-24T03:00:54;16.20;99.90
22986;DHT22;11659;51.092;7.080;2022-07-24T03:03:22;16.20;99.90
22986;DHT22;11659;51.092;7.080;2022-07-24T03:05:48;16.20;99.90
22986;DHT22;11659;51.092;7.080;2022-07-24T03:08:14;16.10;99.90
22986;DHT22;11659;51.092;7.080;2022-07-24T03:10:40;16.10;99.90
22986;DHT22;11659;51.092;7.080;2022-07-24T03:13:06;16.10;99.90
22986;DHT22;11659;51.092;7.080;2022-07-24T03:15:32;16.10;99.90
22986;DHT22;11659;51.092;7.080;2022-07-24T03:17:58;16.00;99.90
22986;DHT22;11659;51.092;7.080;2022-07-24T03:20:27;16.00;99.90
22986;DHT22;11659;51.092;7.080;2022-07-24T03:22:54;16.00;99.90
22986;DHT22;11659;51.092;7.080;2022-07-24T03:25:21;16.00;99.90
22986;DHT22;11659;51.092;7.080;2022-07-24T03:27:48;16.00;99.90
22986;DHT22;11659;51.092;7.080;2022-07-24T03:30:15;16.00;99.90
22986;DHT22;11659;51.092;7.080;2022-07-24T03:32:42;15.90;99.90
22986;DHT22;11659;51.092;7.080;2022-07-24T03:35:08;15.90;99.90
22986;DHT22;11659;51.092;7.080;2022-07-24T03:37:36;15.90;99.90
22986;DHT22;11659;51.092;7.080;2022-07-24T03:40:03;15.90;99.90
22986;DHT22;11659;51.092;7.080;2022-07-24T03:42:29;15.90;99.90
22986;DHT22;11659;51.092;7.080;2022-07-24T03:44:55;15.90;99.90
22986;DHT22;11659;51.092;7.080;2022-07-24T03:47:21;15.90;99.90
22986;DHT22;11659;51.092;7.080;2022-07-24T03:49:47;15.90;99.90
22986;DHT22;11659;51.092;7.080;2022-07-24T03:52:13;15.90;99.90
22986;DHT22;11659;51.092;7.080;2022-07-24T03:54:41;15.80;99.90
22986;DHT22;11659;51.092;7.080;2022-07-24T03:57:07;15.90;99.90
22986;DHT22;11659;51.092;7.080;2022-07-24T03:59:34;15.90;99.90
22986;DHT22;11659;51.092;7.080;2022-07-24T04:02:00;15.90;99.90
22986;DHT22;11659;51.092;7.080;2022-07-24T04:04:26;15.90;99.90
22986;DHT22;11659;51.092;7.080;2022-07-24T04:06:52;15.80;99.90
22986;DHT22;11659;51.092;7.080;2022-07-24T04:09:19;15.90;99.90
22986;DHT22;11659;51.092;7.080;2022-07-24T04:11:46;15.90;99.90
22986;DHT22;11659;51.092;7.080;2022-07-24T04:14:13;15.90;99.90
22986;DHT22;11659;51.092;7.080;2022-07-24T04:16:39;15.90;99.90
22986;DHT22;11659;51.092;7.080;2022-07-24T04:19:05;15.90;99.90
22986;DHT22;11659;51.092;7.080;2022-07-24T04:21:31;15.90;99.90
22986;DHT22;11659;51.092;7.080;2022-07-24T04:23:57;16.00;99.90
22986;DHT22;11659;51.092;7.080;2022-07-24T04:26:23;16.00;99.90
22986;DHT22;11659;51.092;7.080;2022-07-24T04:28:50;16.00;99.90
22986;DHT22;11659;51.092;7.080;2022-07-24T04:31:16;16.00;99.90
22986;DHT22;11659;51.092;7.080;2022-07-24T04:33:42;16.00;99.90
22986;DHT22;11659;51.092;7.080;2022-07-24T04:36:08;16.00;99.90
22986;DHT22;11659;51.092;7.080;2022-07-24T04:38:34;16.00;99.90
22986;DHT22;11659;51.092;7.080;2022-07-24T04:41:01;16.10;99.90
22986;DHT22;11659;51.092;7.080;2022-07-24T04:43:27;16.10;99.90
22986;DHT22;11659;51.092;7.080;2022-07-24T04:45:55;16.10;99.90
22986;DHT22;11659;51.092;7.080;2022-07-24T04:48:21;16.10;99.90
22986;DHT22;11659;51.092;7.080;2022-07-24T04:50:47;16.20;99.90
22986;DHT22;11659;51.092;7.080;2022-07-24T04:53:13;16.20;99.90
22986;DHT22;11659;51.092;7.080;2022-07-24T04:55:39;16.20;99.90
22986;DHT22;11659;51.092;7.080;2022-07-24T04:58:05;16.20;99.90
22986;DHT22;11659;51.092;7.080;2022-07-24T05:00:31;16.30;99.90
22986;DHT22;11659;51.092;7.080;2022-07-24T05:02:59;16.30;99.90
22986;DHT22;11659;51.092;7.080;2022-07-24T05:05:25;16.40;99.90
22986;DHT22;11659;51.092;7.080;2022-07-24T05:07:52;16.40;99.90
22986;DHT22;11659;51.092;7.080;2022-07-24T05:10:18;16.40;99.90
22986;DHT22;11659;51.092;7.080;2022-07-24T05:12:44;16.40;99.90
22986;DHT22;11659;51.092;7.080;2022-07-24T05:15:10;16.40;99.90
22986;DHT22;11659;51.092;7.080;2022-07-24T05:17:36;16.50;99.90
22986;DHT22;11659;51.092;7.080;2022-07-24T05:20:05;16.60;99.90
22986;DHT22;11659;51.092;7.080;2022-07-24T05:22:32;16.60;99.90
22986;DHT22;11659;51.092;7.080;2022-07-24T05:24:58;16.70;99.90
22986;DHT22;11659;51.092;7.080;2022-07-24T05:27:24;16.80;99.90
22986;DHT22;11659;51.092;7.080;2022-07-24T05:29:50;16.80;99.90
22986;DHT22;11659;51.092;7.080;2022-07-24T05:32:16;16.90;99.90
22986;DHT22;11659;51.092;7.080;2022-07-24T05:34:42;17.00;99.90
22986;DHT22;11659;51.092;7.080;2022-07-24T05:37:09;17.10;99.90
22986;DHT22;11659;51.092;7.080;2022-07-24T05:39:36;17.20;99.90
22986;DHT22;11659;51.092;7.080;2022-07-24T05:42:02;17.30;99.90
22986;DHT22;11659;51.092;7.080;2022-07-24T05:44:28;17.40;99.90
22986;DHT22;11659;51.092;7.080;2022-07-24T05:46:54;17.50;99.90
22986;DHT22;11659;51.092;7.080;2022-07-24T05:49:20;17.50;99.90
22986;DHT22;11659;51.092;7.080;2022-07-24T05:51:46;17.70;99.90
22986;DHT22;11659;51.092;7.080;2022-07-24T05:54:13;17.80;99.90
22986;DHT22;11659;51.092;7.080;2022-07-24T05:56:39;17.90;99.90
22986;DHT22;11659;51.092;7.080;2022-07-24T05:59:05;18.00;99.90
22986;DHT22;11659;51.092;7.080;2022-07-24T06:01:31;18.10;99.90
22986;DHT22;11659;51.092;7.080;2022-07-24T06:03:58;18.20;99.90
22986;DHT22;11659;51.092;7.080;2022-07-24T06:06:24;18.30;99.90
22986;DHT22;11659;51.092;7.080;2022-07-24T06:08:50;18.40;99.90
22986;DHT22;11659;51.092;7.080;2022-07-24T06:11:17;18.50;99.90
22986;DHT22;11659;51.092;7.080;2022-07-24T06:13:43;18.60;99.90
22986;DHT22;11659;51.092;7.080;2022-07-24T06:16:09;18.60;99.90
22986;DHT22;11659;51.092;7.080;2022-07-24T06:18:35;18.70;99.90
22986;DHT22;11659;51.092;7.080;2022-07-24T06:21:01;18.80;99.90
22986;DHT22;11659;51.092;7.080;2022-07-24T06:23:27;18.90;99.90
22986;DHT22;11659;51.092;7.080;2022-07-24T06:25:53;19.00;99.90
22986;DHT22;11659;51.092;7.080;2022-07-24T06:28:21;19.10;99.90
22986;DHT22;11659;51.092;7.080;2022-07-24T06:30:47;19.20;99.90
22986;DHT22;11659;51.092;7.080;2022-07-24T06:33:13;19.30;99.90
22986;DHT22;11659;51.092;7.080;2022-07-24T06:35:39;19.40;99.90
22986;DHT22;11659;51.092;7.080;2022-07-24T06:38:05;19.50;99.90
22986;DHT22;11659;51.092;7.080;2022-07-24T06:40:31;19.60;99.90
22986;DHT22;11659;51.092;7.080;2022-07-24T06:42:56;19.70;99.90
22986;DHT22;11659;51.092;7.080;2022-07-24T06:45:24;19.80;99.90
22986;DHT22;11659;51.092;7.080;2022-07-24T06:47:50;19.90;99.90
22986;DHT22;11659;51.092;7.080;2022-07-24T06:50:16;20.00;99.90
22986;DHT22;11659;51.092;7.080;2022-07-24T06:52:42;20.10;99.90
22986;DHT22;11659;51.092;7.080;2022-07-24T06:55:09;20.20;99.90
22986;DHT22;11659;51.092;7.080;2022-07-24T06:57:35;20.30;99.90
22986;DHT22;11659;51.092;7.080;2022-07-24T07:00:01;20.40;99.90
22986;DHT22;11659;51.092;7.080;2022-07-24T07:02:28;20.50;99.90
22986;DHT22;11659;51.092;7.080;2022-07-24T07:04:54;20.50;99.90
22986;DHT22;11659;51.092;7.080;2022-07-24T07:07:20;20.60;99.90
22986;DHT22;11659;51.092;7.080;2022-07-24T07:09:46;20.70;99.90
22986;DHT22;11659;51.092;7.080;2022-07-24T07:12:12;20.80;99.90
22986;DHT22;11659;51.092;7.080;2022-07-24T07:14:38;20.80;99.90
22986;DHT22;11659;51.092;7.080;2022-07-24T07:17:04;20.90;99.90
22986;DHT22;11659;51.092;7.080;2022-07-24T07:19:31;21.00;99.90
22986;DHT22;11659;51.092;7.080;2022-07-24T07:21:57;21.00;99.90
22986;DHT22;11659;51.092;7.080;2022-07-24T07:24:24;21.10;99.90
22986;DHT22;11659;51.092;7.080;2022-07-24T07:26:49;21.20;99.90
22986;DHT22;11659;51.092;7.080;2022-07-24T07:29:15;21.30;99.90
22986;DHT22;11659;51.092;7.080;2022-07-24T07:31:41;21.40;99.90
22986;DHT22;11659;51.092;7.080;2022-07-24T07:34:07;21.40;99.90
22986;DHT22;11659;51.092;7.080;2022-07-24T07:36:35;21.50;99.90
22986;DHT22;11659;51.092;7.080;2022-07-24T07:39:01;21.60;99.90
22986;DHT22;11659;51.092;7.080;2022-07-24T07:41:27;21.60;99.90
22986;DHT22;11659;51.092;7.080;2022-07-24T07:43:53;21.70;99.90
22986;DHT22;11659;51.092;7.080;2022-07-24T07:46:19;21.80;99.90
22986;DHT22;11659;51.092;7.080;2022-07-24T07:48:45;21.80;99.90
22986;DHT22;11659;51.092;7.080;2022-07-24T07:51:11;21.90;99.90
22986;DHT22;11659;51.092;7.080;2022-07-24T07:53:38;22.00;99.90
22986;DHT22;11659;51.092;7.080;2022-07-24T07:56:05;22.00;99.90
22986;DHT22;11659;51.092;7.080;2022-07-24T07:58:31;22.10;99.90
22986;DHT22;11659;51.092;7.080;2022-07-24T08:00:57;22.10;99.90
22986;DHT22;11659;51.092;7.080;2022-07-24T08:03:23;22.20;99.90
22986;DHT22;11659;51.092;7.080;2022-07-24T08:05:49;22.30;99.90
22986;DHT22;11659;51.092;7.080;2022-07-24T08:08:15;22.30;99.90
22986;DHT22;11659;51.092;7.080;2022-07-24T08:10:42;22.30;99.90
22986;DHT22;11659;51.092;7.080;2022-07-24T08:13:08;22.40;99.90
22986;DHT22;11659;51.092;7.080;2022-07-24T08:15:34;22.50;99.90
22986;DHT22;11659;51.092;7.080;2022-07-24T08:18:00;22.50;99.90
22986;DHT22;11659;51.092;7.080;2022-07-24T08:20:27;22.60;99.90
22986;DHT22;11659;51.092;7.080;2022-07-24T08:22:53;22.70;99.90
22986;DHT22;11659;51.092;7.080;2022-07-24T08:25:20;22.80;99.90
22986;DHT22;11659;51.092;7.080;2022-07-24T08:27:48;22.80;99.90
22986;DHT22;11659;51.092;7.080;2022-07-24T08:30:14;22.90;99.90
22986;DHT22;11659;51.092;7.080;2022-07-24T08:32:40;23.00;99.90
22986;DHT22;11659;51.092;7.080;2022-07-24T08:35:07;23.10;99.90
22986;DHT22;11659;51.092;7.080;2022-07-24T08:37:35;23.10;99.90
22986;DHT22;11659;51.092;7.080;2022-07-24T08:40:02;23.20;99.90
22986;DHT22;11659;51.092;7.080;2022-07-24T08:42:28;23.20;99.90
22986;DHT22;11659;51.092;7.080;2022-07-24T08:44:56;23.30;99.90
22986;DHT22;11659;51.092;7.080;2022-07-24T08:47:23;23.30;99.90
22986;DHT22;11659;51.092;7.080;2022-07-24T08:49:53;23.40;99.90
22986;DHT22;11659;51.092;7.080;2022-07-24T08:52:20;23.50;99.90
22986;DHT22;11659;51.092;7.080;2022-07-24T08:54:47;23.60;99.90
22986;DHT22;11659;51.092;7.080;2022-07-24T08:57:13;23.60;99.90
22986;DHT22;11659;51.092;7.080;2022-07-24T08:59:39;23.70;99.90
22986;DHT22;11659;51.092;7.080;2022-07-24T09:02:06;23.80;99.90
22986;DHT22;11659;51.092;7.080;2022-07-24T09:04:34;23.90;99.90
22986;DHT22;11659;51.092;7.080;2022-07-24T09:07:03;23.90;99.90
22986;DHT22;11659;51.092;7.080;2022-07-24T09:09:29;24.00;99.90
22986;DHT22;11659;51.092;7.080;2022-07-24T09:12:04;24.10;99.80
22986;DHT22;11659;51.092;7.080;2022-07-24T09:14:31;24.10;99.50
22986;DHT22;11659;51.092;7.080;2022-07-24T09:17:02;24.10;99.40
22986;DHT22;11659;51.092;7.080;2022-07-24T09:19:30;24.20;99.20
22986;DHT22;11659;51.092;7.080;2022-07-24T09:21:55;24.30;99.20
22986;DHT22;11659;51.092;7.080;2022-07-24T09:24:22;24.30;99.10
22986;DHT22;11659;51.092;7.080;2022-07-24T09:26:50;24.40;99.20
22986;DHT22;11659;51.092;7.080;2022-07-24T09:29:18;24.50;99.10
22986;DHT22;11659;51.092;7.080;2022-07-24T09:31:52;24.60;99.00
22986;DHT22;11659;51.092;7.080;2022-07-24T09:34:18;24.70;98.70
22986;DHT22;11659;51.092;7.080;2022-07-24T09:36:55;24.80;98.80
22986;DHT22;11659;51.092;7.080;2022-07-24T09:39:22;24.80;98.50
22986;DHT22;11659;51.092;7.080;2022-07-24T09:41:50;24.90;98.40
22986;DHT22;11659;51.092;7.080;2022-07-24T09:44:17;25.10;98.00
22986;DHT22;11659;51.092;7.080;2022-07-24T09:46:47;25.20;97.60
22986;DHT22;11659;51.092;7.080;2022-07-24T09:49:19;25.20;97.30
22986;DHT22;11659;51.092;7.080;2022-07-24T09:52:14;25.30;97.10
22986;DHT22;11659;51.092;7.080;2022-07-24T09:54:41;25.40;97.10
22986;DHT22;11659;51.092;7.080;2022-07-24T09:57:19;25.50;97.00
22986;DHT22;11659;51.092;7.080;2022-07-24T09:59:47;25.60;97.00
22986;DHT22;11659;51.092;7.080;2022-07-24T10:02:14;25.60;96.60
22986;DHT22;11659;51.092;7.080;2022-07-24T10:04:42;25.70;96.60
22986;DHT22;11659;51.092;7.080;2022-07-24T10:07:09;25.70;96.60
22986;DHT22;11659;51.092;7.080;2022-07-24T10:09:40;25.80;96.50
22986;DHT22;11659;51.092;7.080;2022-07-24T10:12:11;25.80;96.40
22986;DHT22;11659;51.092;7.080;2022-07-24T10:14:39;26.00;96.20
22986;DHT22;11659;51.092;7.080;2022-07-24T10:17:07;26.00;95.90
22986;DHT22;11659;51.092;7.080;2022-07-24T10:19:39;26.10;95.70
22986;DHT22;11659;51.092;7.080;2022-07-24T10:22:09;26.10;95.80
22986;DHT22;11659;51.092;7.080;2022-07-24T10:24:55;26.20;95.50
22986;DHT22;11659;51.092;7.080;2022-07-24T10:27:27;26.30;95.50
22986;DHT22;11659;51.092;7.080;2022-07-24T10:29:54;26.30;95.60
22986;DHT22;11659;51.092;7.080;2022-07-24T10:32:21;26.40;94.90
22986;DHT22;11659;51.092;7.080;2022-07-24T10:34:55;26.50;95.00
22986;DHT22;11659;51.092;7.080;2022-07-24T10:37:25;26.60;94.40
22986;DHT22;11659;51.092;7.080;2022-07-24T10:40:04;26.60;94.20
22986;DHT22;11659;51.092;7.080;2022-07-24T10:43:10;26.70;94.20
22986;DHT22;11659;51.092;7.080;2022-07-24T10:45:40;26.70;94.00
22986;DHT22;11659;51.092;7.080;2022-07-24T10:48:30;26.70;93.90
22986;DHT22;11659;51.092;7.080;2022-07-24T10:51:02;26.80;93.90
22986;DHT22;11659;51.092;7.080;2022-07-24T10:53:31;26.80;94.10
22986;DHT22;11659;51.092;7.080;2022-07-24T10:56:17;26.90;94.10
22986;DHT22;11659;51.092;7.080;2022-07-24T10:58:55;27.00;94.00
22986;DHT22;11659;51.092;7.080;2022-07-24T11:01:36;27.10;94.20
22986;DHT22;11659;51.092;7.080;2022-07-24T11:04:23;27.20;93.90
22986;DHT22;11659;51.092;7.080;2022-07-24T11:06:51;27.30;93.60
22986;DHT22;11659;51.092;7.080;2022-07-24T11:09:19;27.40;93.50
22986;DHT22;11659;51.092;7.080;2022-07-24T11:12:05;27.50;93.40
22986;DHT22;11659;51.092;7.080;2022-07-24T11:14:47;27.60;92.90
22986;DHT22;11659;51.092;7.080;2022-07-24T11:17:39;27.70;92.60
22986;DHT22;11659;51.092;7.080;2022-07-24T11:20:06;27.80;92.30
22986;DHT22;11659;51.092;7.080;2022-07-24T11:22:42;27.90;92.20
22986;DHT22;11659;51.092;7.080;2022-07-24T11:25:14;28.00;91.70
22986;DHT22;11659;51.092;7.080;2022-07-24T11:27:47;28.00;91.40
22986;DHT22;11659;51.092;7.080;2022-07-24T11:30:14;28.10;91.30
22986;DHT22;11659;51.092;7.080;2022-07-24T11:32:41;28.30;91.30
22986;DHT22;11659;51.092;7.080;2022-07-24T11:35:08;28.40;91.00
22986;DHT22;11659;51.092;7.080;2022-07-24T11:37:35;28.50;90.80
22986;DHT22;11659;51.092;7.080;2022-07-24T11:40:02;28.60;90.50
22986;DHT22;11659;51.092;7.080;2022-07-24T11:42:29;28.70;90.30
22986;DHT22;11659;51.092;7.080;2022-07-24T11:44:57;28.90;90.70
22986;DHT22;11659;51.092;7.080;2022-07-24T11:47:24;29.10;90.10
22986;DHT22;11659;51.092;7.080;2022-07-24T11:49:54;29.30;89.50
22986;DHT22;11659;51.092;7.080;2022-07-24T11:52:23;29.50;88.40
22986;DHT22;11659;51.092;7.080;2022-07-24T11:54:50;29.60;87.30
22986;DHT22;11659;51.092;7.080;2022-07-24T11:57:19;29.70;87.00
22986;DHT22;11659;51.092;7.080;2022-07-24T11:59:47;29.80;86.60
22986;DHT22;11659;51.092;7.080;2022-07-24T12:02:15;29.80;85.90
22986;DHT22;11659;51.092;7.080;2022-07-24T12:04:42;30.00;86.10
22986;DHT22;11659;51.092;7.080;2022-07-24T12:07:10;30.00;84.60
22986;DHT22;11659;51.092;7.080;2022-07-24T12:09:44;30.10;83.70
22986;DHT22;11659;51.092;7.080;2022-07-24T12:12:18;30.20;83.70
22986;DHT22;11659;51.092;7.080;2022-07-24T12:14:45;30.40;83.60
22986;DHT22;11659;51.092;7.080;2022-07-24T12:17:10;30.60;83.50
22986;DHT22;11659;51.092;7.080;2022-07-24T12:19:38;30.70;83.20
22986;DHT22;11659;51.092;7.080;2022-07-24T12:22:04;30.90;82.90
22986;DHT22;11659;51.092;7.080;2022-07-24T12:24:31;31.00;82.20
22986;DHT22;11659;51.092;7.080;2022-07-24T12:26:58;31.10;82.50
22986;DHT22;11659;51.092;7.080;2022-07-24T12:29:26;31.30;82.70
22986;DHT22;11659;51.092;7.080;2022-07-24T12:31:52;31.40;82.30
22986;DHT22;11659;51.092;7.080;2022-07-24T12:34:20;31.60;80.80
22986;DHT22;11659;51.092;7.080;2022-07-24T12:36:47;31.70;80.10
22986;DHT22;11659;51.092;7.080;2022-07-24T12:39:13;31.80;79.00
22986;DHT22;11659;51.092;7.080;2022-07-24T12:41:44;31.90;78.80
22986;DHT22;11659;51.092;7.080;2022-07-24T12:44:10;32.10;78.00
22986;DHT22;11659;51.092;7.080;2022-07-24T12:46:37;32.30;78.60
22986;DHT22;11659;51.092;7.080;2022-07-24T12:49:05;32.40;78.00
22986;DHT22;11659;51.092;7.080;2022-07-24T12:51:44;32.50;76.50
22986;DHT22;11659;51.092;7.080;2022-07-24T12:54:17;32.60;75.20
22986;DHT22;11659;51.092;7.080;2022-07-24T12:56:44;32.50;75.00
22986;DHT22;11659;51.092;7.080;2022-07-24T12:59:21;32.50;75.20
22986;DHT22;11659;51.092;7.080;2022-07-24T13:01:49;32.40;75.50
22986;DHT22;11659;51.092;7.080;2022-07-24T13:04:17;32.30;75.40
22986;DHT22;11659;51.092;7.080;2022-07-24T13:06:45;32.10;75.30
22986;DHT22;11659;51.092;7.080;2022-07-24T13:09:13;32.00;75.60
22986;DHT22;11659;51.092;7.080;2022-07-24T13:11:42;31.90;75.90
22986;DHT22;11659;51.092;7.080;2022-07-24T13:14:09;31.80;76.00
22986;DHT22;11659;51.092;7.080;2022-07-24T13:16:37;31.60;76.30
22986;DHT22;11659;51.092;7.080;2022-07-24T13:19:04;31.50;76.50
22986;DHT22;11659;51.092;7.080;2022-07-24T13:21:30;31.30;76.80
22986;DHT22;11659;51.092;7.080;2022-07-24T13:23:56;31.20;77.10
22986;DHT22;11659;51.092;7.080;2022-07-24T13:26:23;31.10;77.70
22986;DHT22;11659;51.092;7.080;2022-07-24T13:28:51;31.10;77.40
22986;DHT22;11659;51.092;7.080;2022-07-24T13:31:17;31.00;77.30
22986;DHT22;11659;51.092;7.080;2022-07-24T13:33:45;30.90;76.40
22986;DHT22;11659;51.092;7.080;2022-07-24T13:36:12;30.80;77.00
22986;DHT22;11659;51.092;7.080;2022-07-24T13:38:38;30.70;77.10
22986;DHT22;11659;51.092;7.080;2022-07-24T13:41:04;30.60;77.50
22986;DHT22;11659;51.092;7.080;2022-07-24T13:43:30;30.50;77.50
22986;DHT22;11659;51.092;7.080;2022-07-24T13:45:58;30.40;77.70
22986;DHT22;11659;51.092;7.080;2022-07-24T13:48:24;30.30;78.10
22986;DHT22;11659;51.092;7.080;2022-07-24T13:50:50;30.30;79.20
22986;DHT22;11659;51.092;7.080;2022-07-24T13:53:16;30.30;80.20
22986;DHT22;11659;51.092;7.080;2022-07-24T13:55:42;30.30;80.10
22986;DHT22;11659;51.092;7.080;2022-07-24T13:58:08;30.30;79.60
22986;DHT22;11659;51.092;7.080;2022-07-24T14:00:34;30.30;79.10
22986;DHT22;11659;51.092;7.080;2022-07-24T14:03:01;30.20;79.30
22986;DHT22;11659;51.092;7.080;2022-07-24T14:05:27;30.30;79.50
22986;DHT22;11659;51.092;7.080;2022-07-24T14:07:54;30.30;79.10
22986;DHT22;11659;51.092;7.080;2022-07-24T14:10:20;30.40;78.40
22986;DHT22;11659;51.092;7.080;2022-07-24T14:12:47;30.40;78.10
22986;DHT22;11659;51.092;7.080;2022-07-24T14:15:13;30.40;77.90
22986;DHT22;11659;51.092;7.080;2022-07-24T14:17:40;30.50;77.60
22986;DHT22;11659;51.092;7.080;2022-07-24T14:20:09;30.50;77.90
22986;DHT22;11659;51.092;7.080;2022-07-24T14:22:35;30.40;77.80
22986;DHT22;11659;51.092;7.080;2022-07-24T14:25:02;30.40;77.90
22986;DHT22;11659;51.092;7.080;2022-07-24T14:27:28;30.40;78.00
22986;DHT22;11659;51.092;7.080;2022-07-24T14:29:54;30.30;77.40
22986;DHT22;11659;51.092;7.080;2022-07-24T14:32:20;30.30;77.10
22986;DHT22;11659;51.092;7.080;2022-07-24T14:34:46;30.30;77.60
22986;DHT22;11659;51.092;7.080;2022-07-24T14:37:13;30.30;78.00
22986;DHT22;11659;51.092;7.080;2022-07-24T14:39:39;30.20;77.20
22986;DHT22;11659;51.092;7.080;2022-07-24T14:42:05;30.20;77.00
22986;DHT22;11659;51.092;7.080;2022-07-24T14:44:31;30.20;77.20
22986;DHT22;11659;51.092;7.080;2022-07-24T14:46:58;30.10;77.70
22986;DHT22;11659;51.092;7.080;2022-07-24T14:49:25;30.20;78.30
22986;DHT22;11659;51.092;7.080;2022-07-24T14:51:51;30.20;78.50
22986;DHT22;11659;51.092;7.080;2022-07-24T14:54:19;30.30;78.50
22986;DHT22;11659;51.092;7.080;2022-07-24T14:56:45;30.30;78.10
22986;DHT22;11659;51.092;7.080;2022-07-24T14:59:11;30.30;76.40
22986;DHT22;11659;51.092;7.080;2022-07-24T15:01:38;30.30;75.80
22986;DHT22;11659;51.092;7.080;2022-07-24T15:04:05;30.30;76.20
22986;DHT22;11659;51.092;7.080;2022-07-24T15:06:31;30.30;76.50
22986;DHT22;11659;51.092;7.080;2022-07-24T15:08:57;30.30;76.50
22986;DHT22;11659;51.092;7.080;2022-07-24T15:11:24;30.30;75.60
22986;DHT22;11659;51.092;7.080;2022-07-24T15:13:51;30.30;75.10
22986;DHT22;11659;51.092;7.080;2022-07-24T15:16:17;30.30;75.30
22986;DHT22;11659;51.092;7.080;2022-07-24T15:18:43;30.30;75.50
22986;DHT22;11659;51.092;7.080;2022-07-24T15:21:09;30.30;75.70
22986;DHT22;11659;51.092;7.080;2022-07-24T15:23:35;30.30;76.10
22986;DHT22;11659;51.092;7.080;2022-07-24T15:26:02;30.40;76.00
22986;DHT22;11659;51.092;7.080;2022-07-24T15:28:29;30.50;76.00
22986;DHT22;11659;51.092;7.080;2022-07-24T15:30:55;30.40;75.90